createdAt,value
2018-09-13T00:01:25.184Z,17.10
2018-09-13T00:03:52.912Z,17.40
2018-09-13T00:06:20.608Z,17.40
2018-09-13T00:08:48.346Z,17.50
2018-09-13T00:11:16.065Z,17.40
2018-09-13T00:13:43.808Z,17.40
2018-09-13T00:16:11.552Z,17.30
2018-09-13T00:18:39.297Z,17.00
2018-09-13T00:21:07.067Z,16.70
2018-09-13T00:23:34.817Z,16.80
2018-09-13T00:26:02.536Z,17.10
2018-09-13T00:28:30.261Z,17.10
2018-09-13T00:30:58.204Z,17.10
2018-09-13T00:33:25.939Z,16.80
2018-09-13T00:35:53.991Z,17.30
2018-09-13T00:38:21.730Z,17.40
2018-09-13T00:40:49.551Z,17.30
2018-09-13T00:43:17.281Z,16.80
2018-09-13T00:45:45.016Z,17.10
2018-09-13T00:48:12.741Z,17.10
2018-09-13T00:50:40.478Z,17.40
2018-09-13T00:53:08.182Z,17.10
2018-09-13T00:55:35.976Z,17.50
2018-09-13T00:58:03.688Z,17.40
2018-09-13T01:00:31.408Z,17.20
2018-09-13T01:02:59.145Z,16.90
2018-09-13T01:05:26.867Z,17.20
2018-09-13T01:07:54.621Z,17.20
2018-09-13T01:10:22.376Z,17.40
2018-09-13T01:12:50.190Z,17.00
2018-09-13T01:15:17.957Z,16.90
2018-09-13T01:17:45.773Z,16.80
2018-09-13T01:20:13.500Z,17.30
2018-09-13T01:22:41.253Z,17.00
2018-09-13T01:25:08.968Z,16.90
2018-09-13T01:27:36.724Z,16.80
2018-09-13T01:30:04.536Z,16.80
2018-09-13T01:32:32.305Z,16.70
2018-09-13T01:35:00.012Z,16.70
2018-09-13T01:37:27.776Z,16.80
2018-09-13T01:39:55.493Z,16.80
2018-09-13T01:42:23.232Z,16.70
2018-09-13T01:44:50.968Z,16.90
2018-09-13T01:47:18.684Z,17.00
2018-09-13T01:49:46.421Z,16.80
2018-09-13T01:52:14.145Z,16.80
2018-09-13T01:54:41.895Z,16.70
2018-09-13T01:57:09.636Z,16.40
2018-09-13T01:59:37.412Z,16.30
2018-09-13T02:02:05.556Z,16.30
2018-09-13T02:04:33.333Z,16.20
2018-09-13T02:07:01.079Z,16.30
2018-09-13T02:09:28.832Z,16.10
2018-09-13T02:11:56.565Z,16.20
2018-09-13T02:14:24.325Z,16.30
2018-09-13T02:16:52.310Z,16.30
2018-09-13T02:19:20.078Z,16.20
2018-09-13T02:21:47.793Z,16.10
2018-09-13T02:24:15.525Z,15.80
2018-09-13T02:26:43.257Z,16.10
2018-09-13T02:29:10.981Z,16.10
2018-09-13T02:31:38.701Z,16.10
2018-09-13T02:34:06.420Z,16.20
2018-09-13T02:36:34.166Z,16.10
2018-09-13T02:39:01.971Z,16.10
2018-09-13T02:41:29.733Z,16.10
2018-09-13T02:43:57.432Z,15.90
2018-09-13T02:46:25.164Z,16.10
2018-09-13T02:48:52.879Z,16.10
2018-09-13T02:51:20.648Z,16.10
2018-09-13T02:53:48.372Z,15.70
2018-09-13T02:56:16.106Z,15.90
2018-09-13T02:58:43.844Z,15.50
2018-09-13T03:01:11.576Z,15.60
2018-09-13T03:03:39.308Z,15.60
2018-09-13T03:06:07.047Z,15.50
2018-09-13T03:08:34.805Z,15.40
2018-09-13T03:11:02.549Z,15.70
2018-09-13T03:13:30.343Z,15.50
2018-09-13T03:15:58.099Z,15.50
2018-09-13T03:18:25.829Z,15.60
2018-09-13T03:20:53.555Z,15.50
2018-09-13T03:23:21.292Z,15.50
2018-09-13T03:25:49.058Z,15.50
2018-09-13T03:28:16.895Z,15.50
2018-09-13T03:30:44.685Z,15.70
2018-09-13T03:33:12.491Z,15.60
2018-09-13T03:35:40.252Z,15.70
2018-09-13T03:38:07.963Z,15.50
2018-09-13T03:40:35.704Z,16.00
2018-09-13T03:43:03.447Z,15.50
2018-09-13T03:45:31.213Z,15.70
2018-09-13T03:47:58.935Z,15.60
2018-09-13T03:50:26.717Z,15.90
2018-09-13T03:52:54.430Z,15.50
2018-09-13T03:55:22.148Z,15.60
2018-09-13T03:57:49.895Z,15.60
2018-09-13T04:00:17.680Z,15.50
2018-09-13T04:02:45.439Z,15.60
2018-09-13T04:05:13.201Z,15.60
2018-09-13T04:07:41.023Z,16.00
2018-09-13T04:10:08.869Z,15.20
2018-09-13T04:12:36.660Z,16.00
2018-09-13T04:15:04.974Z,15.90
2018-09-13T04:17:32.780Z,16.00
2018-09-13T04:20:00.516Z,16.00
2018-09-13T04:22:28.325Z,15.60
2018-09-13T04:24:56.046Z,15.90
2018-09-13T04:27:23.822Z,15.50
2018-09-13T04:29:51.554Z,15.50
2018-09-13T04:32:19.317Z,15.90
2018-09-13T04:34:47.085Z,15.80
2018-09-13T04:37:17.963Z,15.80
2018-09-13T04:39:45.726Z,15.30
2018-09-13T04:42:13.485Z,15.40
2018-09-13T04:44:41.231Z,15.60
2018-09-13T04:47:09.006Z,15.40
2018-09-13T04:49:36.768Z,15.40
2018-09-13T04:52:04.641Z,15.60
2018-09-13T04:54:32.406Z,15.80
2018-09-13T04:57:00.148Z,16.00
2018-09-13T04:59:27.889Z,15.50
2018-09-13T05:01:55.612Z,15.40
2018-09-13T05:04:23.356Z,15.40
2018-09-13T05:06:51.076Z,15.50
2018-09-13T05:09:18.793Z,15.50
2018-09-13T05:11:46.549Z,15.60
2018-09-13T05:14:14.272Z,15.20
2018-09-13T05:16:42.045Z,15.50
2018-09-13T05:19:09.793Z,15.60
2018-09-13T05:21:37.536Z,15.40
2018-09-13T05:24:05.293Z,15.70
2018-09-13T05:26:33.048Z,15.60
2018-09-13T05:29:00.805Z,15.50
2018-09-13T05:31:28.606Z,15.50
2018-09-13T05:33:56.377Z,15.40
2018-09-13T05:36:24.195Z,15.60
2018-09-13T05:38:51.996Z,15.60
2018-09-13T05:41:19.755Z,15.40
2018-09-13T05:43:47.866Z,15.60
2018-09-13T05:46:15.603Z,15.50
2018-09-13T05:48:43.405Z,15.50
2018-09-13T05:51:11.185Z,15.30
2018-09-13T05:53:38.961Z,15.40
2018-09-13T05:56:06.710Z,15.40
2018-09-13T05:58:34.472Z,15.50
2018-09-13T06:01:02.250Z,15.40
2018-09-13T06:03:30.000Z,15.10
2018-09-13T06:05:57.746Z,15.60
2018-09-13T06:08:25.525Z,15.50
2018-09-13T06:10:53.292Z,15.40
2018-09-13T06:13:21.078Z,15.50
2018-09-13T06:15:48.836Z,15.60
2018-09-13T06:18:16.602Z,15.50
2018-09-13T06:20:44.359Z,15.50
2018-09-13T06:23:12.104Z,15.50
2018-09-13T06:25:39.869Z,15.60
2018-09-13T06:28:07.622Z,15.50
2018-09-13T06:30:35.384Z,15.50
2018-09-13T06:33:03.183Z,15.50
2018-09-13T06:35:30.956Z,15.40
2018-09-13T06:37:59.089Z,15.30
2018-09-13T06:40:26.837Z,15.40
2018-09-13T06:42:54.596Z,15.50
2018-09-13T06:45:22.395Z,15.90
2018-09-13T06:47:50.196Z,15.40
2018-09-13T06:50:17.968Z,15.50
2018-09-13T06:52:45.717Z,16.00
2018-09-13T06:55:13.468Z,16.10
2018-09-13T06:57:41.233Z,16.00
2018-09-13T07:00:09.053Z,16.00
2018-09-13T07:02:36.843Z,16.00
2018-09-13T07:05:04.718Z,15.90
2018-09-13T07:07:32.541Z,15.90
2018-09-13T07:10:00.271Z,16.10
2018-09-13T07:12:28.014Z,16.10
2018-09-13T07:14:55.783Z,16.10
2018-09-13T07:17:23.595Z,16.50
2018-09-13T07:19:51.309Z,16.10
2018-09-13T07:22:19.081Z,16.00
2018-09-13T07:24:46.813Z,15.50
2018-09-13T07:27:14.553Z,16.00
2018-09-13T07:29:42.288Z,16.20
2018-09-13T07:32:10.045Z,16.10
2018-09-13T07:34:37.843Z,16.60
2018-09-13T07:37:05.588Z,16.70
2018-09-13T07:39:33.406Z,16.80
2018-09-13T07:42:01.229Z,16.20
2018-09-13T07:44:29.041Z,16.60
2018-09-13T07:46:56.844Z,16.30
2018-09-13T07:49:24.641Z,16.20
2018-09-13T07:51:52.329Z,16.30
2018-09-13T07:54:20.073Z,16.20
2018-09-13T07:56:47.866Z,16.20
2018-09-13T07:59:15.629Z,16.10
2018-09-13T08:01:43.360Z,16.10
2018-09-13T08:04:11.104Z,16.20
2018-09-13T08:06:38.849Z,15.90
2018-09-13T08:09:09.215Z,15.90
2018-09-13T08:11:36.959Z,16.00
2018-09-13T08:14:04.719Z,16.10
2018-09-13T08:16:32.473Z,15.90
2018-09-13T08:19:00.226Z,15.90
2018-09-13T08:21:28.008Z,16.00
2018-09-13T08:23:55.728Z,16.10
2018-09-13T08:26:23.590Z,16.10
2018-09-13T08:28:51.308Z,16.10
2018-09-13T08:31:19.070Z,16.00
2018-09-13T08:33:46.948Z,16.00
2018-09-13T08:36:14.713Z,16.10
2018-09-13T08:38:42.440Z,16.60
2018-09-13T08:41:10.292Z,16.20
2018-09-13T08:43:38.037Z,16.30
2018-09-13T08:46:05.910Z,16.40
2018-09-13T08:48:33.635Z,16.70
2018-09-13T08:51:01.438Z,16.50
2018-09-13T08:53:29.248Z,16.20
2018-09-13T08:55:57.006Z,16.50
2018-09-13T08:58:24.817Z,16.70
2018-09-13T09:00:52.553Z,16.70
2018-09-13T09:03:20.307Z,16.60
2018-09-13T09:05:48.104Z,16.70
2018-09-13T09:08:15.870Z,16.90
2018-09-13T09:10:44.627Z,16.90
2018-09-13T09:13:12.426Z,16.60
2018-09-13T09:15:40.193Z,16.70
2018-09-13T09:18:08.165Z,16.70
2018-09-13T09:20:35.898Z,16.70
2018-09-13T09:23:03.656Z,16.70
2018-09-13T09:25:31.424Z,16.80
2018-09-13T09:27:59.165Z,16.60
2018-09-13T09:30:26.933Z,16.80
2018-09-13T09:32:54.684Z,16.70
2018-09-13T09:35:22.428Z,16.90
2018-09-13T09:37:50.210Z,16.70
2018-09-13T09:40:17.974Z,16.90
2018-09-13T09:42:45.740Z,16.60
2018-09-13T09:45:13.496Z,17.00
2018-09-13T09:47:41.331Z,17.00
2018-09-13T09:50:09.163Z,16.90
2018-09-13T09:52:36.881Z,16.70
2018-09-13T09:55:04.685Z,16.80
2018-09-13T09:57:32.388Z,16.70
2018-09-13T10:00:00.126Z,16.80
2018-09-13T10:02:27.889Z,17.10
2018-09-13T10:04:55.624Z,17.10
2018-09-13T10:07:23.432Z,16.60
2018-09-13T10:09:51.312Z,16.80
2018-09-13T10:12:19.140Z,16.80
2018-09-13T10:14:52.455Z,16.80
2018-09-13T10:17:25.893Z,17.20
2018-09-13T10:19:59.325Z,17.40
2018-09-13T10:22:32.769Z,17.30
2018-09-13T10:25:07.070Z,17.40
2018-09-13T10:27:40.507Z,17.10
2018-09-13T10:30:14.016Z,17.10
2018-09-13T10:32:47.357Z,16.80
2018-09-13T10:36:18.648Z,16.70
2018-09-13T10:38:51.889Z,16.70
2018-09-13T10:41:25.464Z,16.70
2018-09-13T10:43:58.805Z,16.70
2018-09-13T10:46:28.445Z,16.70
2018-09-13T10:49:01.973Z,16.90
2018-09-13T10:51:35.427Z,17.40
2018-09-13T10:54:07.268Z,17.20
2018-09-13T10:56:35.235Z,17.20
2018-09-13T10:59:03.034Z,17.50
2018-09-13T11:01:30.876Z,17.50
2018-09-13T11:03:58.786Z,17.50
2018-09-13T11:06:26.618Z,17.60
2018-09-13T11:08:54.453Z,17.80
2018-09-13T11:11:22.288Z,18.10
2018-09-13T11:14:28.117Z,18.00
2018-09-13T11:16:55.934Z,18.40
2018-09-13T11:19:23.761Z,19.10
2018-09-13T11:21:51.573Z,19.50
2018-09-13T11:24:19.345Z,18.80
2018-09-13T11:26:47.131Z,18.60
2018-09-13T11:29:14.906Z,18.80
2018-09-13T11:31:42.676Z,18.50
2018-09-13T11:34:10.438Z,18.90
2018-09-13T11:36:38.240Z,18.80
2018-09-13T11:39:08.406Z,19.30
2018-09-13T11:41:36.277Z,18.90
2018-09-13T11:44:04.057Z,19.40
2018-09-13T11:46:31.832Z,19.20
2018-09-13T11:48:59.701Z,18.50
2018-09-13T11:51:27.486Z,18.80
2018-09-13T11:53:55.296Z,18.80
2018-09-13T11:56:23.040Z,19.10
2018-09-13T11:58:50.768Z,19.40
2018-09-13T12:01:18.659Z,19.30
2018-09-13T12:03:46.312Z,19.50
2018-09-13T12:06:14.106Z,19.80
2018-09-13T12:08:41.866Z,19.70
2018-09-13T12:11:09.648Z,19.70
2018-09-13T12:13:37.412Z,20.40
2018-09-13T12:16:05.187Z,20.30
2018-09-13T12:18:32.996Z,20.20
2018-09-13T12:21:00.741Z,20.20
2018-09-13T12:23:28.725Z,20.30
2018-09-13T12:25:56.316Z,20.30
2018-09-13T12:28:24.100Z,20.60
2018-09-13T12:30:51.924Z,21.00
2018-09-13T12:33:19.926Z,20.80
2018-09-13T12:35:47.765Z,20.40
2018-09-13T12:38:15.684Z,20.30
2018-09-13T12:40:43.557Z,20.20
2018-09-13T12:43:11.476Z,20.30
2018-09-13T12:45:39.393Z,20.40
2018-09-13T12:48:07.505Z,20.80
2018-09-13T12:50:35.377Z,20.20
2018-09-13T12:53:03.107Z,20.50
2018-09-13T12:55:36.610Z,20.70
2018-09-13T12:58:04.394Z,20.80
2018-09-13T13:00:32.145Z,20.50
2018-09-13T13:02:59.905Z,20.70
2018-09-13T13:05:27.626Z,20.70
2018-09-13T13:07:55.377Z,20.40
2018-09-13T13:10:23.131Z,20.80
2018-09-13T13:12:50.912Z,20.70
2018-09-13T13:15:18.706Z,20.10
2018-09-13T13:17:46.451Z,20.50
2018-09-13T13:20:14.365Z,20.70
2018-09-13T13:22:42.080Z,21.10
2018-09-13T13:25:09.829Z,21.20
2018-09-13T13:27:37.690Z,21.20
2018-09-13T13:30:05.562Z,21.30
2018-09-13T13:32:33.417Z,21.30
2018-09-13T13:35:01.166Z,22.40
2018-09-13T13:37:28.916Z,23.00
2018-09-13T13:39:56.700Z,22.80
2018-09-13T13:42:24.516Z,23.20
2018-09-13T13:44:52.243Z,23.30
2018-09-13T13:47:20.904Z,22.60
2018-09-13T13:49:48.620Z,22.20
2018-09-13T13:52:16.445Z,21.90
2018-09-13T13:54:44.198Z,21.60
2018-09-13T13:57:11.910Z,22.00
2018-09-13T13:59:39.648Z,22.20
2018-09-13T14:02:07.389Z,22.30
2018-09-13T14:04:35.195Z,22.30
2018-09-13T14:07:02.977Z,22.20
2018-09-13T14:09:30.728Z,22.00
2018-09-13T14:11:58.469Z,22.20
2018-09-13T14:14:26.313Z,22.50
2018-09-13T14:16:54.037Z,22.90
2018-09-13T14:19:21.821Z,22.50
2018-09-13T14:21:49.512Z,22.70
2018-09-13T14:24:17.282Z,22.00
2018-09-13T14:26:45.010Z,21.90
2018-09-13T14:29:12.788Z,21.20
2018-09-13T14:31:40.601Z,21.60
2018-09-13T14:34:08.337Z,21.50
2018-09-13T14:36:36.101Z,20.90
2018-09-13T14:39:06.231Z,21.00
2018-09-13T14:41:34.261Z,21.10
2018-09-13T14:44:02.007Z,20.70
2018-09-13T14:46:29.834Z,21.10
2018-09-13T14:48:57.896Z,21.10
2018-09-13T14:51:25.684Z,21.10
2018-09-13T14:53:53.568Z,21.10
2018-09-13T14:56:21.357Z,20.60
2018-09-13T14:58:49.194Z,21.00
2018-09-13T15:01:16.959Z,21.10
2018-09-13T15:03:44.742Z,20.90
2018-09-13T15:06:12.466Z,21.00
2018-09-13T15:08:40.216Z,20.90
2018-09-13T15:11:07.981Z,20.90
2018-09-13T15:13:35.745Z,20.30
2018-09-13T15:16:03.552Z,20.70
2018-09-13T15:18:31.442Z,20.80
2018-09-13T15:20:59.208Z,20.90
2018-09-13T15:23:26.970Z,20.80
2018-09-13T15:25:54.708Z,20.80
2018-09-13T15:28:22.474Z,20.60
2018-09-13T15:30:50.263Z,20.50
2018-09-13T15:33:18.041Z,20.70
2018-09-13T15:35:45.803Z,20.40
2018-09-13T15:38:13.572Z,20.60
2018-09-13T15:40:41.328Z,20.60
2018-09-13T15:43:09.153Z,20.30
2018-09-13T15:45:36.874Z,20.30
2018-09-13T15:48:04.723Z,20.20
2018-09-13T15:50:32.465Z,20.40
2018-09-13T15:53:00.217Z,20.20
2018-09-13T15:55:27.951Z,20.40
2018-09-13T15:57:55.693Z,20.10
2018-09-13T16:00:23.444Z,20.30
2018-09-13T16:02:51.221Z,20.00
2018-09-13T16:05:18.985Z,19.60
2018-09-13T16:07:46.732Z,19.60
2018-09-13T16:10:14.480Z,19.60
2018-09-13T16:12:42.283Z,19.40
2018-09-13T16:15:10.045Z,20.00
2018-09-13T16:17:37.816Z,20.00
2018-09-13T16:20:05.772Z,19.40
2018-09-13T16:22:33.481Z,19.60
2018-09-13T16:25:01.255Z,20.00
2018-09-13T16:27:29.031Z,20.00
2018-09-13T16:29:56.785Z,19.80
2018-09-13T16:32:25.204Z,19.40
2018-09-13T16:34:53.576Z,19.60
2018-09-13T16:38:28.833Z,19.50
2018-09-13T16:41:02.608Z,19.40
2018-09-13T16:43:35.956Z,19.50
2018-09-13T16:46:03.938Z,19.40
2018-09-13T16:48:37.282Z,19.20
2018-09-13T16:51:05.293Z,19.50
2018-09-13T16:53:33.026Z,19.50
2018-09-13T16:56:00.767Z,19.00
2018-09-13T16:58:28.622Z,19.30
2018-09-13T17:00:56.397Z,19.00
2018-09-13T17:03:24.162Z,19.10
2018-09-13T17:05:51.931Z,18.90
2018-09-13T17:08:19.933Z,18.90
2018-09-13T17:10:47.726Z,19.00
2018-09-13T17:13:15.484Z,18.90
2018-09-13T17:15:43.229Z,19.00
2018-09-13T17:18:10.958Z,19.00
2018-09-13T17:20:38.706Z,18.90
2018-09-13T17:23:06.551Z,19.10
2018-09-13T17:25:34.316Z,19.00
2018-09-13T17:28:02.078Z,18.70
2018-09-13T17:30:29.798Z,18.50
2018-09-13T17:32:57.536Z,18.80
2018-09-13T17:35:25.285Z,18.50
2018-09-13T17:37:53.108Z,18.80
2018-09-13T17:40:20.842Z,18.80
2018-09-13T17:42:48.599Z,18.70
2018-09-13T17:45:16.333Z,18.70
2018-09-13T17:47:44.029Z,18.80
2018-09-13T17:50:11.790Z,18.60
2018-09-13T17:52:39.488Z,18.70
2018-09-13T17:55:07.249Z,18.60
2018-09-13T17:57:35.028Z,18.50
2018-09-13T18:00:02.871Z,18.40
2018-09-13T18:02:30.600Z,18.50
2018-09-13T18:04:58.360Z,18.70
2018-09-13T18:07:26.115Z,18.40
2018-09-13T18:09:53.904Z,18.40
2018-09-13T18:12:21.685Z,18.50
2018-09-13T18:14:49.443Z,18.80
2018-09-13T18:17:17.193Z,18.80
2018-09-13T18:19:44.922Z,18.40
2018-09-13T18:22:12.684Z,18.40
2018-09-13T18:24:40.404Z,18.40
2018-09-13T18:27:08.237Z,18.10
2018-09-13T18:29:36.025Z,18.20
2018-09-13T18:32:04.864Z,18.40
2018-09-13T18:34:32.668Z,18.70
2018-09-13T18:37:00.627Z,18.50
2018-09-13T18:39:28.448Z,18.30
2018-09-13T18:41:56.326Z,18.60
2018-09-13T18:44:24.053Z,18.40
2018-09-13T18:46:51.814Z,18.30
2018-09-13T18:49:19.544Z,18.50
2018-09-13T18:51:47.264Z,18.50
2018-09-13T18:54:15.083Z,18.60
2018-09-13T18:56:42.869Z,18.60
2018-09-13T18:59:10.637Z,18.60
2018-09-13T19:01:38.450Z,18.40
2018-09-13T19:04:06.301Z,18.40
2018-09-13T19:06:34.032Z,18.30
2018-09-13T19:09:01.848Z,18.20
2018-09-13T19:11:30.032Z,18.10
2018-09-13T19:13:57.742Z,17.90
2018-09-13T19:16:25.476Z,18.00
2018-09-13T19:21:27.676Z,17.80
2018-09-13T19:23:55.476Z,17.80
2018-09-13T19:26:23.514Z,17.90
2018-09-13T19:28:51.255Z,18.10
2018-09-13T19:31:19.028Z,18.10
2018-09-13T19:33:46.783Z,17.90
2018-09-13T19:36:14.600Z,17.80
2018-09-13T19:38:42.419Z,17.80
2018-09-13T19:41:10.544Z,17.70
2018-09-13T19:43:38.365Z,17.40
2018-09-13T19:46:06.479Z,16.90
2018-09-13T19:48:34.240Z,17.20
2018-09-13T19:51:02.586Z,16.80
2018-09-13T19:53:30.262Z,16.80
2018-09-13T19:55:57.991Z,16.90
2018-09-13T19:58:25.759Z,17.00
2018-09-13T20:00:54.069Z,16.80
2018-09-13T20:03:21.873Z,16.60
2018-09-13T20:05:49.628Z,16.70
2018-09-13T20:08:18.060Z,16.70
2018-09-13T20:10:45.812Z,16.70
2018-09-13T20:13:13.614Z,16.50
2018-09-13T20:15:41.374Z,16.20
2018-09-13T20:18:09.224Z,16.30
2018-09-13T20:20:37.029Z,16.30
2018-09-13T20:23:04.813Z,16.20
2018-09-13T20:25:32.568Z,16.20
2018-09-13T20:28:00.344Z,16.10
2018-09-13T20:30:28.122Z,16.00
2018-09-13T20:32:55.951Z,16.20
2018-09-13T20:35:23.748Z,16.20
2018-09-13T20:37:51.570Z,15.60
2018-09-13T20:40:19.334Z,16.00
2018-09-13T20:42:47.196Z,15.60
2018-09-13T20:45:14.984Z,15.60
2018-09-13T20:47:42.736Z,15.70
2018-09-13T20:50:10.524Z,15.60
2018-09-13T20:52:38.256Z,15.70
2018-09-13T20:55:06.062Z,15.50
2018-09-13T20:57:33.818Z,15.20
2018-09-13T21:00:01.617Z,15.60
2018-09-13T21:02:29.362Z,15.50
2018-09-13T21:04:57.115Z,15.40
2018-09-13T21:07:24.893Z,15.50
2018-09-13T21:09:52.940Z,15.10
2018-09-13T21:12:20.742Z,15.30
2018-09-13T21:14:48.479Z,15.50
2018-09-13T21:17:16.258Z,14.90
2018-09-13T21:19:44.036Z,15.00
2018-09-13T21:22:11.977Z,14.90
2018-09-13T21:24:39.763Z,14.90
2018-09-13T21:27:07.528Z,15.00
2018-09-13T21:29:35.300Z,14.80
2018-09-13T21:32:03.067Z,15.00
2018-09-13T21:34:30.792Z,14.50
2018-09-13T21:36:58.633Z,14.90
2018-09-13T21:39:26.390Z,15.00
2018-09-13T21:41:54.159Z,14.80
2018-09-13T21:44:21.907Z,14.90
2018-09-13T21:46:49.692Z,14.60
2018-09-13T21:49:17.457Z,14.40
2018-09-13T21:51:45.284Z,14.40
2018-09-13T21:54:13.066Z,14.40
2018-09-13T21:56:40.817Z,14.50
2018-09-13T21:59:08.561Z,14.50
2018-09-13T22:01:36.328Z,14.60
2018-09-13T22:04:04.240Z,14.40
2018-09-13T22:06:31.979Z,14.30
2018-09-13T22:08:59.826Z,14.30
2018-09-13T22:11:27.932Z,14.30
2018-09-13T22:13:55.681Z,14.10
2018-09-13T22:16:23.448Z,14.50
2018-09-13T22:18:51.187Z,14.30
2018-09-13T22:21:18.989Z,14.40
2018-09-13T22:23:46.716Z,14.30
2018-09-13T22:26:14.536Z,14.40
2018-09-13T22:28:42.316Z,14.20
2018-09-13T22:31:10.208Z,14.30
2018-09-13T22:33:37.989Z,14.20
2018-09-13T22:36:05.981Z,14.50
2018-09-13T22:38:33.789Z,13.90
2018-09-13T22:41:01.613Z,13.80
2018-09-13T22:43:34.865Z,13.90
2018-09-13T22:46:02.624Z,13.90
2018-09-13T22:48:30.340Z,14.10
2018-09-13T22:50:58.124Z,13.80
2018-09-13T22:53:25.926Z,13.90
2018-09-13T22:55:53.686Z,14.00
2018-09-13T22:58:21.477Z,14.00
2018-09-13T23:00:52.876Z,13.90
2018-09-13T23:03:20.660Z,13.50
2018-09-13T23:05:48.389Z,14.10
2018-09-13T23:08:16.209Z,13.90
2018-09-13T23:10:43.933Z,13.90
2018-09-13T23:13:11.716Z,13.90
2018-09-13T23:15:39.441Z,13.80
2018-09-13T23:18:07.179Z,13.80
2018-09-13T23:20:34.892Z,13.40
2018-09-13T23:23:02.661Z,13.40
2018-09-13T23:25:30.381Z,13.60
2018-09-13T23:27:58.092Z,13.60
2018-09-13T23:30:25.829Z,13.40
2018-09-13T23:32:53.524Z,13.40
2018-09-13T23:35:21.257Z,13.40
2018-09-13T23:37:49.013Z,13.40
2018-09-13T23:40:16.785Z,13.40
2018-09-13T23:42:44.549Z,13.50
2018-09-13T23:45:12.313Z,13.40
2018-09-13T23:47:40.037Z,13.50
2018-09-13T23:50:07.828Z,13.80
2018-09-13T23:52:35.536Z,13.80
2018-09-13T23:55:03.314Z,13.90
2018-09-13T23:57:31.047Z,13.90
2018-09-13T23:59:58.789Z,13.80
